<?xml version="1.0" encoding="UTF-8"?>
<gpx version="1.1" creator="https://www.youtrack.es" xsi:schemaLocation="http://www.topografix.com/GPX/1/1 http://www.topografix.com/GPX/1/1/gpx.xsd http://www.garmin.com/xmlschemas/GpxExtensions/v3 http://www.garmin.com/xmlschemas/GpxExtensionsv3.xsd http://www.garmin.com/xmlschemas/TrackPointExtension/v1 http://www.garmin.com/xmlschemas/TrackPointExtensionv1.xsd" xmlns:gpxtpx="http://www.garmin.com/xmlschemas/TrackPointExtension/v1" xmlns:gpxx="http://www.garmin.com/xmlschemas/GpxExtensions/v3" xmlns:xsi="http://www.w3.org/2001/XMLSchema-instance">
  <metadata>
    <link href="https://www.youtrack.es">
      <text>YouTrack.es</text>
    </link>
    <time>2026-05-08T23:38:57Z</time>
  </metadata>
  <trk>
    <src>https://www.youtrack.es</src>
    <link href="https://www.youtrack.es/ruta/8082-mairena-del-aljarafe-almonte">
      <text>YouTrack.es</text>
    </link>
    <trkseg>
      <trkpt lat="37.345187" lon="-6.05536">
        <ele>68.242</ele>
        <time>2019-05-01T09:00:21Z</time>
      </trkpt>
      <trkpt lat="37.345144" lon="-6.056482">
        <ele>68.822</ele>
        <time>2019-05-01T09:08:21Z</time>
      </trkpt>
      <trkpt lat="37.346446" lon="-6.057204">
        <ele>70.414</ele>
        <time>2019-05-01T09:09:03Z</time>
      </trkpt>
      <trkpt lat="37.346497" lon="-6.057792">
        <ele>70.408</ele>
        <time>2019-05-01T09:09:16Z</time>
      </trkpt>
      <trkpt lat="37.348178" lon="-6.058955">
        <ele>77.747</ele>
        <time>2019-05-01T09:10:09Z</time>
      </trkpt>
      <trkpt lat="37.34782" lon="-6.059802">
        <ele>71.989</ele>
        <time>2019-05-01T09:10:24Z</time>
      </trkpt>
      <trkpt lat="37.346258" lon="-6.061443">
        <ele>72.683</ele>
        <time>2019-05-01T09:11:06Z</time>
      </trkpt>
      <trkpt lat="37.345083" lon="-6.063523">
        <ele>71.115</ele>
        <time>2019-05-01T09:11:39Z</time>
      </trkpt>
      <trkpt lat="37.343776" lon="-6.067033">
        <ele>58.884</ele>
        <time>2019-05-01T09:12:38Z</time>
      </trkpt>
      <trkpt lat="37.343819" lon="-6.067258">
        <ele>58.973</ele>
        <time>2019-05-01T09:12:44Z</time>
      </trkpt>
      <trkpt lat="37.344129" lon="-6.067331">
        <ele>59.747</ele>
        <time>2019-05-01T09:12:53Z</time>
      </trkpt>
      <trkpt lat="37.344197" lon="-6.069162">
        <ele>64.951</ele>
        <time>2019-05-01T09:13:35Z</time>
      </trkpt>
      <trkpt lat="37.344532" lon="-6.069221">
        <ele>65.711</ele>
        <time>2019-05-01T09:13:45Z</time>
      </trkpt>
      <trkpt lat="37.34457" lon="-6.069869">
        <ele>67.621</ele>
        <time>2019-05-01T09:13:56Z</time>
      </trkpt>
      <trkpt lat="37.344389" lon="-6.070951">
        <ele>65.403</ele>
        <time>2019-05-01T09:14:14Z</time>
      </trkpt>
      <trkpt lat="37.343561" lon="-6.07337">
        <ele>71.608</ele>
        <time>2019-05-01T09:14:58Z</time>
      </trkpt>
      <trkpt lat="37.343543" lon="-6.074734">
        <ele>72.424</ele>
        <time>2019-05-01T09:15:21Z</time>
      </trkpt>
      <trkpt lat="37.343109" lon="-6.076234">
        <ele>71.886</ele>
        <time>2019-05-01T09:15:47Z</time>
      </trkpt>
      <trkpt lat="37.343105" lon="-6.077606">
        <ele>66.69</ele>
        <time>2019-05-01T09:16:06Z</time>
      </trkpt>
      <trkpt lat="37.343202" lon="-6.078679">
        <ele>67.582</ele>
        <time>2019-05-01T09:16:21Z</time>
      </trkpt>
      <trkpt lat="37.343579" lon="-6.079571">
        <ele>67.271</ele>
        <time>2019-05-01T09:16:37Z</time>
      </trkpt>
      <trkpt lat="37.343309" lon="-6.080255">
        <ele>65.88</ele>
        <time>2019-05-01T09:16:51Z</time>
      </trkpt>
      <trkpt lat="37.343424" lon="-6.080557">
        <ele>65.474</ele>
        <time>2019-05-01T09:16:56Z</time>
      </trkpt>
      <trkpt lat="37.343797" lon="-6.080835">
        <ele>65.768</ele>
        <time>2019-05-01T09:17:04Z</time>
      </trkpt>
      <trkpt lat="37.344457" lon="-6.084233">
        <ele>65.061</ele>
        <time>2019-05-01T09:17:58Z</time>
      </trkpt>
      <trkpt lat="37.344578" lon="-6.086614">
        <ele>58.721</ele>
        <time>2019-05-01T09:18:29Z</time>
      </trkpt>
      <trkpt lat="37.344394" lon="-6.089171">
        <ele>53.913</ele>
        <time>2019-05-01T09:19:00Z</time>
      </trkpt>
      <trkpt lat="37.344453" lon="-6.090561">
        <ele>51.408</ele>
        <time>2019-05-01T09:19:15Z</time>
      </trkpt>
      <trkpt lat="37.344665" lon="-6.09123">
        <ele>49.829</ele>
        <time>2019-05-01T09:19:23Z</time>
      </trkpt>
      <trkpt lat="37.344565" lon="-6.091861">
        <ele>48.461</ele>
        <time>2019-05-01T09:19:31Z</time>
      </trkpt>
      <trkpt lat="37.344262" lon="-6.092698">
        <ele>46.025</ele>
        <time>2019-05-01T09:19:44Z</time>
      </trkpt>
      <trkpt lat="37.343761" lon="-6.093528">
        <ele>43.427</ele>
        <time>2019-05-01T09:20:04Z</time>
      </trkpt>
      <trkpt lat="37.342699" lon="-6.0941">
        <ele>46.976</ele>
        <time>2019-05-01T09:20:29Z</time>
      </trkpt>
      <trkpt lat="37.341736" lon="-6.095117">
        <ele>49.285</ele>
        <time>2019-05-01T09:21:02Z</time>
      </trkpt>
      <trkpt lat="37.340793" lon="-6.096589">
        <ele>53.729</ele>
        <time>2019-05-01T09:21:37Z</time>
      </trkpt>
      <trkpt lat="37.339458" lon="-6.099168">
        <ele>57.823</ele>
        <time>2019-05-01T09:22:32Z</time>
      </trkpt>
      <trkpt lat="37.338612" lon="-6.100365">
        <ele>58.324</ele>
        <time>2019-05-01T09:22:57Z</time>
      </trkpt>
      <trkpt lat="37.338145" lon="-6.101655">
        <ele>62.704</ele>
        <time>2019-05-01T09:23:21Z</time>
      </trkpt>
      <trkpt lat="37.337583" lon="-6.104117">
        <ele>62.414</ele>
        <time>2019-05-01T09:23:59Z</time>
      </trkpt>
      <trkpt lat="37.336922" lon="-6.105902">
        <ele>62.708</ele>
        <time>2019-05-01T09:24:29Z</time>
      </trkpt>
      <trkpt lat="37.336232" lon="-6.107564">
        <ele>65.285</ele>
        <time>2019-05-01T09:24:58Z</time>
      </trkpt>
      <trkpt lat="37.335619" lon="-6.108641">
        <ele>65.227</ele>
        <time>2019-05-01T09:25:19Z</time>
      </trkpt>
      <trkpt lat="37.335074" lon="-6.109225">
        <ele>64.851</ele>
        <time>2019-05-01T09:25:35Z</time>
      </trkpt>
      <trkpt lat="37.334776" lon="-6.109935">
        <ele>65.833</ele>
        <time>2019-05-01T09:25:47Z</time>
      </trkpt>
      <trkpt lat="37.334183" lon="-6.109922">
        <ele>66.152</ele>
        <time>2019-05-01T09:26:01Z</time>
      </trkpt>
      <trkpt lat="37.333912" lon="-6.110656">
        <ele>64.851</ele>
        <time>2019-05-01T09:26:13Z</time>
      </trkpt>
      <trkpt lat="37.333696" lon="-6.110881">
        <ele>65.125</ele>
        <time>2019-05-01T09:26:18Z</time>
      </trkpt>
      <trkpt lat="37.331961" lon="-6.11115">
        <ele>69.829</ele>
        <time>2019-05-01T09:26:48Z</time>
      </trkpt>
      <trkpt lat="37.330651" lon="-6.112178">
        <ele>70.236</ele>
        <time>2019-05-01T09:27:18Z</time>
      </trkpt>
      <trkpt lat="37.326037" lon="-6.118195">
        <ele>59.617</ele>
        <time>2019-05-01T09:29:01Z</time>
      </trkpt>
      <trkpt lat="37.325124" lon="-6.119863">
        <ele>56.918</ele>
        <time>2019-05-01T09:29:27Z</time>
      </trkpt>
      <trkpt lat="37.323721" lon="-6.125354">
        <ele>59.208</ele>
        <time>2019-05-01T09:30:48Z</time>
      </trkpt>
      <trkpt lat="37.323276" lon="-6.126512">
        <ele>60.986</ele>
        <time>2019-05-01T09:31:06Z</time>
      </trkpt>
      <trkpt lat="37.321169" lon="-6.130122">
        <ele>60.378</ele>
        <time>2019-05-01T09:32:43Z</time>
      </trkpt>
      <trkpt lat="37.320158" lon="-6.132264">
        <ele>62.552</ele>
        <time>2019-05-01T09:33:19Z</time>
      </trkpt>
      <trkpt lat="37.319831" lon="-6.13263">
        <ele>64.024</ele>
        <time>2019-05-01T09:33:28Z</time>
      </trkpt>
      <trkpt lat="37.318557" lon="-6.133312">
        <ele>64.723</ele>
        <time>2019-05-01T09:33:53Z</time>
      </trkpt>
      <trkpt lat="37.31787" lon="-6.134181">
        <ele>63.082</ele>
        <time>2019-05-01T09:34:09Z</time>
      </trkpt>
      <trkpt lat="37.316688" lon="-6.134943">
        <ele>63.776</ele>
        <time>2019-05-01T09:34:29Z</time>
      </trkpt>
      <trkpt lat="37.313732" lon="-6.138682">
        <ele>59.69</ele>
        <time>2019-05-01T09:35:30Z</time>
      </trkpt>
      <trkpt lat="37.312124" lon="-6.140417">
        <ele>57.864</ele>
        <time>2019-05-01T09:35:56Z</time>
      </trkpt>
      <trkpt lat="37.310408" lon="-6.143663">
        <ele>55.906</ele>
        <time>2019-05-01T09:36:43Z</time>
      </trkpt>
      <trkpt lat="37.310005" lon="-6.144819">
        <ele>56.016</ele>
        <time>2019-05-01T09:36:58Z</time>
      </trkpt>
      <trkpt lat="37.308148" lon="-6.1478">
        <ele>53.508</ele>
        <time>2019-05-01T09:37:43Z</time>
      </trkpt>
      <trkpt lat="37.306979" lon="-6.148801">
        <ele>53.559</ele>
        <time>2019-05-01T09:38:06Z</time>
      </trkpt>
      <trkpt lat="37.304812" lon="-6.149956">
        <ele>52.311</ele>
        <time>2019-05-01T09:38:38Z</time>
      </trkpt>
      <trkpt lat="37.30398" lon="-6.150544">
        <ele>51.095</ele>
        <time>2019-05-01T09:38:53Z</time>
      </trkpt>
      <trkpt lat="37.303732" lon="-6.151765">
        <ele>48.057</ele>
        <time>2019-05-01T09:39:08Z</time>
      </trkpt>
      <trkpt lat="37.303907" lon="-6.152609">
        <ele>46.616</ele>
        <time>2019-05-01T09:39:18Z</time>
      </trkpt>
      <trkpt lat="37.304263" lon="-6.152592">
        <ele>45.765</ele>
        <time>2019-05-01T09:39:26Z</time>
      </trkpt>
      <trkpt lat="37.304416" lon="-6.152832">
        <ele>44.889</ele>
        <time>2019-05-01T09:39:31Z</time>
      </trkpt>
      <trkpt lat="37.303979" lon="-6.153749">
        <ele>43.143</ele>
        <time>2019-05-01T09:39:46Z</time>
      </trkpt>
      <trkpt lat="37.304396" lon="-6.155263">
        <ele>41.474</ele>
        <time>2019-05-01T09:40:11Z</time>
      </trkpt>
      <trkpt lat="37.304302" lon="-6.156131">
        <ele>41.456</ele>
        <time>2019-05-01T09:40:26Z</time>
      </trkpt>
      <trkpt lat="37.303765" lon="-6.156867">
        <ele>42.421</ele>
        <time>2019-05-01T09:40:42Z</time>
      </trkpt>
      <trkpt lat="37.302027" lon="-6.158409">
        <ele>40.908</ele>
        <time>2019-05-01T09:41:17Z</time>
      </trkpt>
      <trkpt lat="37.30142" lon="-6.159195">
        <ele>39.69</ele>
        <time>2019-05-01T09:41:28Z</time>
      </trkpt>
      <trkpt lat="37.299483" lon="-6.161039">
        <ele>47.452</ele>
        <time>2019-05-01T09:42:08Z</time>
      </trkpt>
      <trkpt lat="37.298203" lon="-6.162899">
        <ele>44.746</ele>
        <time>2019-05-01T09:42:37Z</time>
      </trkpt>
      <trkpt lat="37.297967" lon="-6.165092">
        <ele>44.128</ele>
        <time>2019-05-01T09:43:06Z</time>
      </trkpt>
      <trkpt lat="37.297449" lon="-6.166695">
        <ele>45.167</ele>
        <time>2019-05-01T09:43:32Z</time>
      </trkpt>
      <trkpt lat="37.29652" lon="-6.168862">
        <ele>44.076</ele>
        <time>2019-05-01T09:44:04Z</time>
      </trkpt>
      <trkpt lat="37.295731" lon="-6.170225">
        <ele>44.59</ele>
        <time>2019-05-01T09:44:25Z</time>
      </trkpt>
      <trkpt lat="37.295305" lon="-6.171382">
        <ele>46.394</ele>
        <time>2019-05-01T09:44:45Z</time>
      </trkpt>
      <trkpt lat="37.295125" lon="-6.17575">
        <ele>42.656</ele>
        <time>2019-05-01T09:45:45Z</time>
      </trkpt>
      <trkpt lat="37.295561" lon="-6.177117">
        <ele>44.559</ele>
        <time>2019-05-01T09:46:06Z</time>
      </trkpt>
      <trkpt lat="37.295673" lon="-6.178581">
        <ele>45.414</ele>
        <time>2019-05-01T09:46:25Z</time>
      </trkpt>
      <trkpt lat="37.29518" lon="-6.180772">
        <ele>41.908</ele>
        <time>2019-05-01T09:46:58Z</time>
      </trkpt>
      <trkpt lat="37.293719" lon="-6.183473">
        <ele>38.918</ele>
        <time>2019-05-01T09:47:33Z</time>
      </trkpt>
      <trkpt lat="37.293322" lon="-6.18511">
        <ele>36.23</ele>
        <time>2019-05-01T09:47:54Z</time>
      </trkpt>
      <trkpt lat="37.292702" lon="-6.193094">
        <ele>40.924</ele>
        <time>2019-05-01T09:49:46Z</time>
      </trkpt>
      <trkpt lat="37.292944" lon="-6.193681">
        <ele>39.886</ele>
        <time>2019-05-01T09:49:57Z</time>
      </trkpt>
      <trkpt lat="37.294217" lon="-6.195174">
        <ele>45.455</ele>
        <time>2019-05-01T09:50:31Z</time>
      </trkpt>
      <trkpt lat="37.294364" lon="-6.195677">
        <ele>46.484</ele>
        <time>2019-05-01T09:51:54Z</time>
      </trkpt>
      <trkpt lat="37.29273" lon="-6.204563">
        <ele>46.278</ele>
        <time>2019-05-01T09:54:02Z</time>
      </trkpt>
      <trkpt lat="37.292333" lon="-6.20483">
        <ele>47.552</ele>
        <time>2019-05-01T09:54:14Z</time>
      </trkpt>
      <trkpt lat="37.291569" lon="-6.204786">
        <ele>45.071</ele>
        <time>2019-05-01T09:54:28Z</time>
      </trkpt>
      <trkpt lat="37.291177" lon="-6.205225">
        <ele>43.441</ele>
        <time>2019-05-01T09:54:46Z</time>
      </trkpt>
      <trkpt lat="37.289995" lon="-6.205675">
        <ele>37.615</ele>
        <time>2019-05-01T09:55:12Z</time>
      </trkpt>
      <trkpt lat="37.289486" lon="-6.206418">
        <ele>37.208</ele>
        <time>2019-05-01T09:55:38Z</time>
      </trkpt>
      <trkpt lat="37.288708" lon="-6.206577">
        <ele>39.25</ele>
        <time>2019-05-01T09:55:58Z</time>
      </trkpt>
      <trkpt lat="37.288039" lon="-6.207721">
        <ele>39.842</ele>
        <time>2019-05-01T09:56:20Z</time>
      </trkpt>
      <trkpt lat="37.287858" lon="-6.208434">
        <ele>39.426</ele>
        <time>2019-05-01T09:56:35Z</time>
      </trkpt>
      <trkpt lat="37.286317" lon="-6.210584">
        <ele>41.228</ele>
        <time>2019-05-01T09:57:20Z</time>
      </trkpt>
      <trkpt lat="37.284887" lon="-6.210489">
        <ele>39.377</ele>
        <time>2019-05-01T09:57:58Z</time>
      </trkpt>
      <trkpt lat="37.284564" lon="-6.210593">
        <ele>38.376</ele>
        <time>2019-05-01T09:58:07Z</time>
      </trkpt>
      <trkpt lat="37.283585" lon="-6.210355">
        <ele>37.88</ele>
        <time>2019-05-01T09:58:35Z</time>
      </trkpt>
      <trkpt lat="37.282222" lon="-6.209487">
        <ele>37.074</ele>
        <time>2019-05-01T09:59:15Z</time>
      </trkpt>
      <trkpt lat="37.281683" lon="-6.209524">
        <ele>40.472</ele>
        <time>2019-05-01T09:59:29Z</time>
      </trkpt>
      <trkpt lat="37.280717" lon="-6.211534">
        <ele>38.913</ele>
        <time>2019-05-01T10:00:24Z</time>
      </trkpt>
      <trkpt lat="37.280436" lon="-6.212429">
        <ele>37.814</ele>
        <time>2019-05-01T10:00:47Z</time>
      </trkpt>
      <trkpt lat="37.280539" lon="-6.21197">
        <ele>39.008</ele>
        <time>2019-05-01T10:01:06Z</time>
      </trkpt>
      <trkpt lat="37.280666" lon="-6.211809">
        <ele>39.65</ele>
        <time>2019-05-01T10:01:15Z</time>
      </trkpt>
      <trkpt lat="37.279834" lon="-6.214091">
        <ele>38.252</ele>
        <time>2019-05-01T10:02:03Z</time>
      </trkpt>
      <trkpt lat="37.278768" lon="-6.215778">
        <ele>37.116</ele>
        <time>2019-05-01T10:02:40Z</time>
      </trkpt>
      <trkpt lat="37.278221" lon="-6.216922">
        <ele>38.298</ele>
        <time>2019-05-01T10:03:02Z</time>
      </trkpt>
      <trkpt lat="37.277742" lon="-6.218928">
        <ele>36.347</ele>
        <time>2019-05-01T10:03:39Z</time>
      </trkpt>
      <trkpt lat="37.277639" lon="-6.220453">
        <ele>29.346</ele>
        <time>2019-05-01T10:04:01Z</time>
      </trkpt>
      <trkpt lat="37.276314" lon="-6.224245">
        <ele>28.24</ele>
        <time>2019-05-01T10:05:29Z</time>
      </trkpt>
      <trkpt lat="37.275797" lon="-6.224858">
        <ele>28.654</ele>
        <time>2019-05-01T10:05:47Z</time>
      </trkpt>
      <trkpt lat="37.275738" lon="-6.226037">
        <ele>31.113</ele>
        <time>2019-05-01T10:06:08Z</time>
      </trkpt>
      <trkpt lat="37.274077" lon="-6.230953">
        <ele>27.343</ele>
        <time>2019-05-01T10:07:32Z</time>
      </trkpt>
      <trkpt lat="37.274447" lon="-6.232303">
        <ele>24.907</ele>
        <time>2019-05-01T10:07:54Z</time>
      </trkpt>
      <trkpt lat="37.274176" lon="-6.232804">
        <ele>26.808</ele>
        <time>2019-05-01T10:08:05Z</time>
      </trkpt>
      <trkpt lat="37.274097" lon="-6.233548">
        <ele>31.434</ele>
        <time>2019-05-01T10:08:19Z</time>
      </trkpt>
      <trkpt lat="37.273825" lon="-6.234152">
        <ele>33.336</ele>
        <time>2019-05-01T10:08:30Z</time>
      </trkpt>
      <trkpt lat="37.2735" lon="-6.236889">
        <ele>24.46</ele>
        <time>2019-05-01T10:09:07Z</time>
      </trkpt>
      <trkpt lat="37.272807" lon="-6.239158">
        <ele>29.612</ele>
        <time>2019-05-01T10:09:42Z</time>
      </trkpt>
      <trkpt lat="37.270724" lon="-6.241281">
        <ele>26.361</ele>
        <time>2019-05-01T10:10:23Z</time>
      </trkpt>
      <trkpt lat="37.267089" lon="-6.24436">
        <ele>25.79</ele>
        <time>2019-05-01T10:11:40Z</time>
      </trkpt>
      <trkpt lat="37.265626" lon="-6.245778">
        <ele>27.924</ele>
        <time>2019-05-01T10:12:16Z</time>
      </trkpt>
      <trkpt lat="37.265149" lon="-6.246572">
        <ele>26.888</ele>
        <time>2019-05-01T10:12:28Z</time>
      </trkpt>
      <trkpt lat="37.264852" lon="-6.247989">
        <ele>22.826</ele>
        <time>2019-05-01T10:12:44Z</time>
      </trkpt>
      <trkpt lat="37.26436" lon="-6.248812">
        <ele>20.347</ele>
        <time>2019-05-01T10:12:57Z</time>
      </trkpt>
      <trkpt lat="37.262131" lon="-6.251105">
        <ele>21.911</ele>
        <time>2019-05-01T10:13:49Z</time>
      </trkpt>
      <trkpt lat="37.259566" lon="-6.255858">
        <ele>20.308</ele>
        <time>2019-05-01T10:15:05Z</time>
      </trkpt>
      <trkpt lat="37.258038" lon="-6.257369">
        <ele>18.715</ele>
        <time>2019-05-01T10:15:35Z</time>
      </trkpt>
      <trkpt lat="37.255134" lon="-6.258611">
        <ele>15.457</ele>
        <time>2019-05-01T10:16:21Z</time>
      </trkpt>
      <trkpt lat="37.254251" lon="-6.259299">
        <ele>14.681</ele>
        <time>2019-05-01T10:16:39Z</time>
      </trkpt>
      <trkpt lat="37.252098" lon="-6.260013">
        <ele>17.653</ele>
        <time>2019-05-01T10:17:18Z</time>
      </trkpt>
      <trkpt lat="37.248597" lon="-6.26269">
        <ele>10.462</ele>
        <time>2019-05-01T10:18:12Z</time>
      </trkpt>
      <trkpt lat="37.246702" lon="-6.263533">
        <ele>6.311</ele>
        <time>2019-05-01T10:18:45Z</time>
      </trkpt>
      <trkpt lat="37.244991" lon="-6.264608">
        <ele>3.275</ele>
        <time>2019-05-01T10:22:13Z</time>
      </trkpt>
      <trkpt lat="37.245557" lon="-6.264222">
        <ele>7.459</ele>
        <time>2019-05-01T10:23:03Z</time>
      </trkpt>
      <trkpt lat="37.245765" lon="-6.264432">
        <ele>9.132</ele>
        <time>2019-05-01T10:23:48Z</time>
      </trkpt>
      <trkpt lat="37.245994" lon="-6.265084">
        <ele>8.992</ele>
        <time>2019-05-01T10:24:07Z</time>
      </trkpt>
      <trkpt lat="37.246218" lon="-6.266844">
        <ele>4.011</ele>
        <time>2019-05-01T10:24:38Z</time>
      </trkpt>
      <trkpt lat="37.245679" lon="-6.268034">
        <ele>4.008</ele>
        <time>2019-05-01T10:25:05Z</time>
      </trkpt>
      <trkpt lat="37.246633" lon="-6.270706">
        <ele>-0.516</ele>
        <time>2019-05-01T10:25:50Z</time>
      </trkpt>
      <trkpt lat="37.246896" lon="-6.273051">
        <ele>2.298</ele>
        <time>2019-05-01T10:26:28Z</time>
      </trkpt>
      <trkpt lat="37.247315" lon="-6.274613">
        <ele>5.612</ele>
        <time>2019-05-01T10:26:58Z</time>
      </trkpt>
      <trkpt lat="37.247163" lon="-6.276267">
        <ele>7.014</ele>
        <time>2019-05-01T10:27:28Z</time>
      </trkpt>
      <trkpt lat="37.247515" lon="-6.281789">
        <ele>9.383</ele>
        <time>2019-05-01T10:29:12Z</time>
      </trkpt>
      <trkpt lat="37.248235" lon="-6.284248">
        <ele>-8.042</ele>
        <time>2019-05-01T10:29:57Z</time>
      </trkpt>
      <trkpt lat="37.249083" lon="-6.286292">
        <ele>-17.046</ele>
        <time>2019-05-01T10:30:35Z</time>
      </trkpt>
      <trkpt lat="37.249515" lon="-6.290319">
        <ele>-39.07</ele>
        <time>2019-05-01T10:31:58Z</time>
      </trkpt>
      <trkpt lat="37.249384" lon="-6.29158">
        <ele>-27.924</ele>
        <time>2019-05-01T10:32:29Z</time>
      </trkpt>
      <trkpt lat="37.248654" lon="-6.292909">
        <ele>-16.004</ele>
        <time>2019-05-01T10:32:56Z</time>
      </trkpt>
      <trkpt lat="37.248055" lon="-6.294847">
        <ele>-21.514</ele>
        <time>2019-05-01T10:33:23Z</time>
      </trkpt>
      <trkpt lat="37.247352" lon="-6.300139">
        <ele>-0.708</ele>
        <time>2019-05-01T10:34:44Z</time>
      </trkpt>
      <trkpt lat="37.247406" lon="-6.299473">
        <ele>5.625</ele>
        <time>2019-05-01T10:35:26Z</time>
      </trkpt>
      <trkpt lat="37.247414" lon="-6.300378">
        <ele>19.547</ele>
        <time>2019-05-01T10:35:59Z</time>
      </trkpt>
      <trkpt lat="37.247741" lon="-6.302428">
        <ele>7.781</ele>
        <time>2019-05-01T10:36:33Z</time>
      </trkpt>
      <trkpt lat="37.247979" lon="-6.302717">
        <ele>5.013</ele>
        <time>2019-05-01T10:36:45Z</time>
      </trkpt>
      <trkpt lat="37.247003" lon="-6.303751">
        <ele>-1.812</ele>
        <time>2019-05-01T10:37:10Z</time>
      </trkpt>
      <trkpt lat="37.246454" lon="-6.305335">
        <ele>-4.461</ele>
        <time>2019-05-01T10:37:36Z</time>
      </trkpt>
      <trkpt lat="37.246501" lon="-6.306558">
        <ele>10.115</ele>
        <time>2019-05-01T10:38:01Z</time>
      </trkpt>
      <trkpt lat="37.246107" lon="-6.30695">
        <ele>13.439</ele>
        <time>2019-05-01T10:38:19Z</time>
      </trkpt>
      <trkpt lat="37.247226" lon="-6.308109">
        <ele>33.856</ele>
        <time>2019-05-01T10:38:54Z</time>
      </trkpt>
      <trkpt lat="37.248096" lon="-6.308635">
        <ele>35.059</ele>
        <time>2019-05-01T10:39:16Z</time>
      </trkpt>
      <trkpt lat="37.248535" lon="-6.309664">
        <ele>36.214</ele>
        <time>2019-05-01T10:39:40Z</time>
      </trkpt>
      <trkpt lat="37.248851" lon="-6.312159">
        <ele>28.808</ele>
        <time>2019-05-01T10:40:24Z</time>
      </trkpt>
      <trkpt lat="37.248753" lon="-6.312451">
        <ele>28.278</ele>
        <time>2019-05-01T10:40:33Z</time>
      </trkpt>
      <trkpt lat="37.246552" lon="-6.315124">
        <ele>21.86</ele>
        <time>2019-05-01T10:41:23Z</time>
      </trkpt>
      <trkpt lat="37.246385" lon="-6.316007">
        <ele>18.244</ele>
        <time>2019-05-01T10:47:45Z</time>
      </trkpt>
      <trkpt lat="37.247684" lon="-6.316603">
        <ele>74.019</ele>
        <time>2014-03-16T09:40:14Z</time>
      </trkpt>
      <trkpt lat="37.251407" lon="-6.318543">
        <ele>79.009</ele>
        <time>2014-03-16T09:42:08Z</time>
      </trkpt>
      <trkpt lat="37.253053" lon="-6.321217">
        <ele>83.019</ele>
        <time>2014-03-16T09:43:16Z</time>
      </trkpt>
      <trkpt lat="37.255232" lon="-6.323502">
        <ele>86.007</ele>
        <time>2014-03-16T09:44:30Z</time>
      </trkpt>
      <trkpt lat="37.255998" lon="-6.324143">
        <ele>86.027</ele>
        <time>2014-03-16T09:44:54Z</time>
      </trkpt>
      <trkpt lat="37.256312" lon="-6.324207">
        <ele>85.054</ele>
        <time>2014-03-16T09:45:08Z</time>
      </trkpt>
      <trkpt lat="37.256467" lon="-6.324563">
        <ele>85.066</ele>
        <time>2014-03-16T09:45:15Z</time>
      </trkpt>
      <trkpt lat="37.258752" lon="-6.326842">
        <ele>89.023</ele>
        <time>2014-03-16T09:46:53Z</time>
      </trkpt>
      <trkpt lat="37.259527" lon="-6.327347">
        <ele>89.082</ele>
        <time>2014-03-16T09:47:18Z</time>
      </trkpt>
      <trkpt lat="37.259754" lon="-6.327922">
        <ele>86.078</ele>
        <time>2014-03-16T09:47:27Z</time>
      </trkpt>
      <trkpt lat="37.260767" lon="-6.328951">
        <ele>84.046</ele>
        <time>2014-03-16T09:48:17Z</time>
      </trkpt>
      <trkpt lat="37.260652" lon="-6.3289">
        <ele>84.071</ele>
        <time>2014-03-16T09:48:24Z</time>
      </trkpt>
      <trkpt lat="37.260309" lon="-6.329209">
        <ele>83.041</ele>
        <time>2014-03-16T09:48:33Z</time>
      </trkpt>
      <trkpt lat="37.26063" lon="-6.329953">
        <ele>82.015</ele>
        <time>2014-03-16T09:48:54Z</time>
      </trkpt>
      <trkpt lat="37.260862" lon="-6.331449">
        <ele>82.007</ele>
        <time>2014-03-16T09:49:24Z</time>
      </trkpt>
      <trkpt lat="37.261203" lon="-6.332334">
        <ele>84.093</ele>
        <time>2014-03-16T09:49:44Z</time>
      </trkpt>
      <trkpt lat="37.262031" lon="-6.333531">
        <ele>84.03</ele>
        <time>2014-03-16T09:50:23Z</time>
      </trkpt>
      <trkpt lat="37.264213" lon="-6.335993">
        <ele>92.042</ele>
        <time>2014-03-16T09:51:57Z</time>
      </trkpt>
      <trkpt lat="37.265143" lon="-6.336742">
        <ele>94.099</ele>
        <time>2014-03-16T09:52:28Z</time>
      </trkpt>
      <trkpt lat="37.268463" lon="-6.338875">
        <ele>104.098</ele>
        <time>2014-03-16T09:54:18Z</time>
      </trkpt>
      <trkpt lat="37.269222" lon="-6.339775">
        <ele>107.084</ele>
        <time>2014-03-16T09:54:48Z</time>
      </trkpt>
      <trkpt lat="37.26989" lon="-6.341141">
        <ele>112.022</ele>
        <time>2014-03-16T09:55:22Z</time>
      </trkpt>
      <trkpt lat="37.27108" lon="-6.34427">
        <ele>110.085</ele>
        <time>2014-03-16T09:56:26Z</time>
      </trkpt>
      <trkpt lat="37.275663" lon="-6.35226">
        <ele>117.089</ele>
        <time>2014-03-16T09:59:20Z</time>
      </trkpt>
      <trkpt lat="37.276665" lon="-6.356537">
        <ele>118.017</ele>
        <time>2014-03-16T10:00:40Z</time>
      </trkpt>
      <trkpt lat="37.27706" lon="-6.35766">
        <ele>122.007</ele>
        <time>2014-03-16T10:01:02Z</time>
      </trkpt>
      <trkpt lat="37.278253" lon="-6.360152">
        <ele>118.094</ele>
        <time>2014-03-16T10:01:56Z</time>
      </trkpt>
      <trkpt lat="37.276296" lon="-6.363035">
        <ele>124.031</ele>
        <time>2014-03-16T10:03:55Z</time>
      </trkpt>
      <trkpt lat="37.277014" lon="-6.36367">
        <ele>124.083</ele>
        <time>2014-03-16T10:04:23Z</time>
      </trkpt>
      <trkpt lat="37.277758" lon="-6.364781">
        <ele>125.03</ele>
        <time>2014-03-16T10:04:53Z</time>
      </trkpt>
      <trkpt lat="37.279408" lon="-6.366105">
        <ele>126.069</ele>
        <time>2014-03-16T10:05:47Z</time>
      </trkpt>
      <trkpt lat="37.280834" lon="-6.367684">
        <ele>130.065</ele>
        <time>2014-03-16T10:06:39Z</time>
      </trkpt>
      <trkpt lat="37.284381" lon="-6.373358">
        <ele>133.053</ele>
        <time>2014-03-16T10:09:09Z</time>
      </trkpt>
      <trkpt lat="37.285076" lon="-6.373511">
        <ele>134.033</ele>
        <time>2014-03-16T10:09:31Z</time>
      </trkpt>
      <trkpt lat="37.285232" lon="-6.373666">
        <ele>134.023</ele>
        <time>2014-03-16T10:09:37Z</time>
      </trkpt>
      <trkpt lat="37.286079" lon="-6.375817">
        <ele>135.015</ele>
        <time>2014-03-16T10:10:37Z</time>
      </trkpt>
      <trkpt lat="37.284372" lon="-6.381752">
        <ele>133.007</ele>
        <time>2014-03-16T10:13:20Z</time>
      </trkpt>
      <trkpt lat="37.284015" lon="-6.38253">
        <ele>133.079</ele>
        <time>2014-03-16T10:13:47Z</time>
      </trkpt>
      <trkpt lat="37.283415" lon="-6.383058">
        <ele>133.086</ele>
        <time>2014-03-16T10:14:20Z</time>
      </trkpt>
      <trkpt lat="37.283343" lon="-6.383661">
        <ele>136.038</ele>
        <time>2014-03-16T10:14:56Z</time>
      </trkpt>
      <trkpt lat="37.286937" lon="-6.384871">
        <ele>137.065</ele>
        <time>2014-03-16T10:17:08Z</time>
      </trkpt>
      <trkpt lat="37.287032" lon="-6.385072">
        <ele>137.054</ele>
        <time>2014-03-16T10:17:14Z</time>
      </trkpt>
      <trkpt lat="37.286793" lon="-6.38564">
        <ele>139.01</ele>
        <time>2014-03-16T10:17:30Z</time>
      </trkpt>
      <trkpt lat="37.288571" lon="-6.387237">
        <ele>140.068</ele>
        <time>2014-03-16T10:18:32Z</time>
      </trkpt>
      <trkpt lat="37.289129" lon="-6.388589">
        <ele>144.042</ele>
        <time>2014-03-16T10:19:07Z</time>
      </trkpt>
      <trkpt lat="37.288896" lon="-6.389306">
        <ele>144.022</ele>
        <time>2014-03-16T10:19:23Z</time>
      </trkpt>
      <trkpt lat="37.28847" lon="-6.389503">
        <ele>145.014</ele>
        <time>2014-03-16T10:19:35Z</time>
      </trkpt>
      <trkpt lat="37.287386" lon="-6.391297">
        <ele>138.007</ele>
        <time>2014-03-16T10:20:37Z</time>
      </trkpt>
      <trkpt lat="37.287693" lon="-6.391292">
        <ele>136.06</ele>
        <time>2014-03-16T10:21:14Z</time>
      </trkpt>
      <trkpt lat="37.286321" lon="-6.392656">
        <ele>136.017</ele>
        <time>2014-03-16T10:22:21Z</time>
      </trkpt>
      <trkpt lat="37.28632" lon="-6.393483">
        <ele>138.049</ele>
        <time>2014-03-16T10:22:44Z</time>
      </trkpt>
      <trkpt lat="37.286852" lon="-6.394885">
        <ele>151.016</ele>
        <time>2014-03-16T10:23:22Z</time>
      </trkpt>
      <trkpt lat="37.288008" lon="-6.395589">
        <ele>157.095</ele>
        <time>2014-03-16T10:24:15Z</time>
      </trkpt>
      <trkpt lat="37.287677" lon="-6.398207">
        <ele>148.081</ele>
        <time>2014-03-16T10:25:13Z</time>
      </trkpt>
      <trkpt lat="37.286925" lon="-6.401428">
        <ele>148.029</ele>
        <time>2014-03-16T10:27:09Z</time>
      </trkpt>
      <trkpt lat="37.291792" lon="-6.403297">
        <ele>157.026</ele>
        <time>2014-03-16T10:30:11Z</time>
      </trkpt>
      <trkpt lat="37.294317" lon="-6.404196">
        <ele>156.047</ele>
        <time>2014-03-16T10:32:35Z</time>
      </trkpt>
      <trkpt lat="37.294373" lon="-6.404114">
        <ele>155.011</ele>
        <time>2014-03-16T10:32:58Z</time>
      </trkpt>
      <trkpt lat="37.294709" lon="-6.404489">
        <ele>155.007</ele>
        <time>2014-03-16T10:33:51Z</time>
      </trkpt>
      <trkpt lat="37.297891" lon="-6.411501">
        <ele>182.038</ele>
        <time>2014-03-16T10:36:12Z</time>
      </trkpt>
      <trkpt lat="37.298455" lon="-6.412089">
        <ele>178.025</ele>
        <time>2014-03-16T10:36:21Z</time>
      </trkpt>
      <trkpt lat="37.299093" lon="-6.412451">
        <ele>165.037</ele>
        <time>2014-03-16T10:36:31Z</time>
      </trkpt>
      <trkpt lat="37.302451" lon="-6.413781">
        <ele>163.044</ele>
        <time>2014-03-16T10:37:49Z</time>
      </trkpt>
      <trkpt lat="37.302693" lon="-6.414214">
        <ele>159.093</ele>
        <time>2014-03-16T10:38:01Z</time>
      </trkpt>
      <trkpt lat="37.301661" lon="-6.41905">
        <ele>153.079</ele>
        <time>2014-03-16T10:39:18Z</time>
      </trkpt>
      <trkpt lat="37.301093" lon="-6.420052">
        <ele>157.027</ele>
        <time>2014-03-16T10:39:36Z</time>
      </trkpt>
      <trkpt lat="37.299753" lon="-6.421501">
        <ele>150.078</ele>
        <time>2014-03-16T10:41:05Z</time>
      </trkpt>
      <trkpt lat="37.300081" lon="-6.420841">
        <ele>151.033</ele>
        <time>2014-03-16T10:42:06Z</time>
      </trkpt>
      <trkpt lat="37.300235" lon="-6.420708">
        <ele>152.026</ele>
        <time>2014-03-16T10:42:16Z</time>
      </trkpt>
      <trkpt lat="37.298148" lon="-6.423106">
        <ele>152.007</ele>
        <time>2014-03-16T10:46:16Z</time>
      </trkpt>
      <trkpt lat="37.29705" lon="-6.424078">
        <ele>148.013</ele>
        <time>2014-03-16T10:46:36Z</time>
      </trkpt>
      <trkpt lat="37.295989" lon="-6.425616">
        <ele>141.05</ele>
        <time>2014-03-16T10:47:01Z</time>
      </trkpt>
      <trkpt lat="37.29546" lon="-6.426006">
        <ele>141.022</ele>
        <time>2014-03-16T10:47:09Z</time>
      </trkpt>
      <trkpt lat="37.293989" lon="-6.426581">
        <ele>134.079</ele>
        <time>2014-03-16T10:47:32Z</time>
      </trkpt>
      <trkpt lat="37.293117" lon="-6.428771">
        <ele>143.018</ele>
        <time>2014-03-16T10:48:24Z</time>
      </trkpt>
      <trkpt lat="37.285829" lon="-6.436481">
        <ele>142.064</ele>
        <time>2014-03-16T10:51:25Z</time>
      </trkpt>
      <trkpt lat="37.28446" lon="-6.438776">
        <ele>146.022</ele>
        <time>2014-03-16T10:52:19Z</time>
      </trkpt>
      <trkpt lat="37.286159" lon="-6.443794">
        <ele>164.095</ele>
        <time>2014-03-16T10:53:57Z</time>
      </trkpt>
      <trkpt lat="37.28701" lon="-6.444443">
        <ele>159.049</ele>
        <time>2014-03-16T10:54:19Z</time>
      </trkpt>
      <trkpt lat="37.287506" lon="-6.445588">
        <ele>160.023</ele>
        <time>2014-03-16T10:54:45Z</time>
      </trkpt>
      <trkpt lat="37.287959" lon="-6.447917">
        <ele>165.007</ele>
        <time>2014-03-16T10:55:34Z</time>
      </trkpt>
      <trkpt lat="37.287585" lon="-6.451524">
        <ele>156.025</ele>
        <time>2014-03-16T10:56:32Z</time>
      </trkpt>
      <trkpt lat="37.287916" lon="-6.453221">
        <ele>155.062</ele>
        <time>2014-03-16T10:57:00Z</time>
      </trkpt>
      <trkpt lat="37.287921" lon="-6.454147">
        <ele>154.084</ele>
        <time>2014-03-16T10:57:13Z</time>
      </trkpt>
      <trkpt lat="37.287815" lon="-6.455779">
        <ele>153.011</ele>
        <time>2014-03-16T10:57:36Z</time>
      </trkpt>
      <trkpt lat="37.287434" lon="-6.457461">
        <ele>151.08</ele>
        <time>2014-03-16T10:58:02Z</time>
      </trkpt>
      <trkpt lat="37.287322" lon="-6.458848">
        <ele>149.016</ele>
        <time>2014-03-16T10:58:23Z</time>
      </trkpt>
      <trkpt lat="37.286411" lon="-6.461168">
        <ele>146.014</ele>
        <time>2014-03-16T10:59:00Z</time>
      </trkpt>
      <trkpt lat="37.2864" lon="-6.462589">
        <ele>146.046</ele>
        <time>2014-03-16T10:59:18Z</time>
      </trkpt>
      <trkpt lat="37.285242" lon="-6.465003">
        <ele>142.088</ele>
        <time>2014-03-16T11:00:03Z</time>
      </trkpt>
      <trkpt lat="37.284197" lon="-6.466481">
        <ele>145.016</ele>
        <time>2014-03-16T11:00:35Z</time>
      </trkpt>
      <trkpt lat="37.283459" lon="-6.469515">
        <ele>146.007</ele>
        <time>2014-03-16T11:01:28Z</time>
      </trkpt>
      <trkpt lat="37.283001" lon="-6.471843">
        <ele>138.05</ele>
        <time>2014-03-16T11:01:56Z</time>
      </trkpt>
      <trkpt lat="37.283035" lon="-6.473548">
        <ele>144.097</ele>
        <time>2014-03-16T11:02:24Z</time>
      </trkpt>
      <trkpt lat="37.28247" lon="-6.477831">
        <ele>149.079</ele>
        <time>2014-03-16T11:03:41Z</time>
      </trkpt>
      <trkpt lat="37.281897" lon="-6.480806">
        <ele>151.036</ele>
        <time>2014-03-16T11:06:37Z</time>
      </trkpt>
      <trkpt lat="37.280241" lon="-6.484653">
        <ele>143.095</ele>
        <time>2014-03-16T11:07:57Z</time>
      </trkpt>
      <trkpt lat="37.275352" lon="-6.495117">
        <ele>141.051</ele>
        <time>2014-03-16T11:11:06Z</time>
      </trkpt>
      <trkpt lat="37.272223" lon="-6.501601">
        <ele>131.069</ele>
        <time>2014-03-16T11:13:03Z</time>
      </trkpt>
      <trkpt lat="37.270816" lon="-6.504071">
        <ele>133.039</ele>
        <time>2014-03-16T11:13:53Z</time>
      </trkpt>
      <trkpt lat="37.269684" lon="-6.507074">
        <ele>134.001</ele>
        <time>2014-03-16T11:14:55Z</time>
      </trkpt>
      <trkpt lat="37.267552" lon="-6.512046">
        <ele>132.021</ele>
        <time>2014-03-16T11:16:46Z</time>
      </trkpt>
      <trkpt lat="37.262245" lon="-6.518008">
        <ele>128.007</ele>
        <time>2014-03-16T11:21:36Z</time>
      </trkpt>
    </trkseg>
  </trk>
</gpx>
